sensor_id;sensor_type;location;lat;lon;timestamp;P1;durP1;ratioP1;P2;durP2;ratioP2
33190;SDS011;19554;42.652;23.364;2023-06-10T00:00:00;9.52;;;6.60;;
33190;SDS011;19554;42.652;23.364;2023-06-10T00:02:26;16.48;;;6.68;;
33190;SDS011;19554;42.652;23.364;2023-06-10T00:04:52;15.23;;;8.55;;
33190;SDS011;19554;42.652;23.364;2023-06-10T00:07:17;11.00;;;7.18;;
33190;SDS011;19554;42.652;23.364;2023-06-10T00:09:43;12.20;;;7.82;;
33190;SDS011;19554;42.652;23.364;2023-06-10T00:12:08;9.90;;;7.38;;
33190;SDS011;19554;42.652;23.364;2023-06-10T00:14:38;11.40;;;7.57;;
33190;SDS011;19554;42.652;23.364;2023-06-10T00:17:05;11.02;;;6.85;;
33190;SDS011;19554;42.652;23.364;2023-06-10T00:19:35;11.25;;;6.80;;
33190;SDS011;19554;42.652;23.364;2023-06-10T00:22:01;14.05;;;6.63;;
33190;SDS011;19554;42.652;23.364;2023-06-10T00:24:28;16.45;;;7.10;;
33190;SDS011;19554;42.652;23.364;2023-06-10T00:26:53;12.50;;;7.50;;
33190;SDS011;19554;42.652;23.364;2023-06-10T00:29:19;8.60;;;6.45;;
33190;SDS011;19554;42.652;23.364;2023-06-10T00:31:44;16.42;;;7.03;;
33190;SDS011;19554;42.652;23.364;2023-06-10T00:34:11;9.77;;;6.65;;
33190;SDS011;19554;42.652;23.364;2023-06-10T00:36:36;10.65;;;6.63;;
33190;SDS011;19554;42.652;23.364;2023-06-10T00:39:02;11.57;;;6.68;;
33190;SDS011;19554;42.652;23.364;2023-06-10T00:41:29;11.82;;;6.80;;
33190;SDS011;19554;42.652;23.364;2023-06-10T00:43:55;11.00;;;6.45;;
33190;SDS011;19554;42.652;23.364;2023-06-10T00:46:21;11.25;;;6.93;;
33190;SDS011;19554;42.652;23.364;2023-06-10T00:48:48;12.13;;;6.68;;
33190;SDS011;19554;42.652;23.364;2023-06-10T00:51:14;15.30;;;7.05;;
33190;SDS011;19554;42.652;23.364;2023-06-10T00:53:41;11.27;;;7.45;;
33190;SDS011;19554;42.652;23.364;2023-06-10T00:56:07;8.93;;;7.30;;
33190;SDS011;19554;42.652;23.364;2023-06-10T00:58:32;10.18;;;7.25;;
33190;SDS011;19554;42.652;23.364;2023-06-10T01:00:58;8.25;;;6.80;;
33190;SDS011;19554;42.652;23.364;2023-06-10T01:03:23;13.18;;;7.38;;
33190;SDS011;19554;42.652;23.364;2023-06-10T01:05:52;10.13;;;7.40;;
33190;SDS011;19554;42.652;23.364;2023-06-10T01:10:59;8.88;;;6.85;;
33190;SDS011;19554;42.652;23.364;2023-06-10T01:13:26;16.10;;;8.85;;
33190;SDS011;19554;42.652;23.364;2023-06-10T01:15:57;14.45;;;8.10;;
33190;SDS011;19554;42.652;23.364;2023-06-10T01:18:29;10.95;;;9.27;;
33190;SDS011;19554;42.652;23.364;2023-06-10T01:20:55;13.25;;;8.18;;
33190;SDS011;19554;42.652;23.364;2023-06-10T01:23:21;13.27;;;7.97;;
33190;SDS011;19554;42.652;23.364;2023-06-10T01:25:53;17.23;;;8.60;;
33190;SDS011;19554;42.652;23.364;2023-06-10T01:33:35;16.70;;;9.32;;
33190;SDS011;19554;42.652;23.364;2023-06-10T01:36:04;15.52;;;8.55;;
33190;SDS011;19554;42.652;23.364;2023-06-10T01:38:33;11.05;;;7.28;;
33190;SDS011;19554;42.652;23.364;2023-06-10T01:41:03;17.40;;;8.07;;
33190;SDS011;19554;42.652;23.364;2023-06-10T01:43:32;10.75;;;8.13;;
33190;SDS011;19554;42.652;23.364;2023-06-10T01:45:58;11.07;;;8.13;;
33190;SDS011;19554;42.652;23.364;2023-06-10T01:48:24;9.32;;;8.20;;
33190;SDS011;19554;42.652;23.364;2023-06-10T01:50:49;12.70;;;8.98;;
33190;SDS011;19554;42.652;23.364;2023-06-10T01:53:14;9.38;;;8.05;;
33190;SDS011;19554;42.652;23.364;2023-06-10T01:55:40;12.05;;;7.90;;
33190;SDS011;19554;42.652;23.364;2023-06-10T01:58:05;11.43;;;8.30;;
33190;SDS011;19554;42.652;23.364;2023-06-10T02:00:30;15.10;;;8.38;;
33190;SDS011;19554;42.652;23.364;2023-06-10T02:02:56;10.48;;;8.40;;
33190;SDS011;19554;42.652;23.364;2023-06-10T02:05:21;14.52;;;9.00;;
33190;SDS011;19554;42.652;23.364;2023-06-10T02:07:47;11.90;;;9.82;;
33190;SDS011;19554;42.652;23.364;2023-06-10T02:10:13;14.07;;;8.85;;
33190;SDS011;19554;42.652;23.364;2023-06-10T02:12:38;13.38;;;10.20;;
33190;SDS011;19554;42.652;23.364;2023-06-10T02:15:04;11.68;;;9.38;;
33190;SDS011;19554;42.652;23.364;2023-06-10T02:17:29;15.13;;;10.18;;
33190;SDS011;19554;42.652;23.364;2023-06-10T02:19:55;16.02;;;10.18;;
33190;SDS011;19554;42.652;23.364;2023-06-10T02:22:22;10.88;;;9.63;;
33190;SDS011;19554;42.652;23.364;2023-06-10T02:24:49;13.43;;;9.65;;
33190;SDS011;19554;42.652;23.364;2023-06-10T02:27:15;12.52;;;9.77;;
33190;SDS011;19554;42.652;23.364;2023-06-10T02:29:41;12.15;;;9.95;;
33190;SDS011;19554;42.652;23.364;2023-06-10T02:32:07;15.73;;;9.40;;
33190;SDS011;19554;42.652;23.364;2023-06-10T02:34:32;14.23;;;9.05;;
33190;SDS011;19554;42.652;23.364;2023-06-10T02:36:58;11.57;;;9.10;;
33190;SDS011;19554;42.652;23.364;2023-06-10T02:39:24;14.30;;;9.20;;
33190;SDS011;19554;42.652;23.364;2023-06-10T02:41:49;13.20;;;9.40;;
33190;SDS011;19554;42.652;23.364;2023-06-10T02:44:15;14.73;;;9.00;;
33190;SDS011;19554;42.652;23.364;2023-06-10T02:46:40;11.07;;;8.48;;
33190;SDS011;19554;42.652;23.364;2023-06-10T02:49:05;13.77;;;9.23;;
33190;SDS011;19554;42.652;23.364;2023-06-10T02:51:31;10.48;;;9.05;;
33190;SDS011;19554;42.652;23.364;2023-06-10T02:53:56;15.45;;;9.65;;
33190;SDS011;19554;42.652;23.364;2023-06-10T02:56:22;13.88;;;9.63;;
33190;SDS011;19554;42.652;23.364;2023-06-10T02:58:47;13.13;;;8.80;;
33190;SDS011;19554;42.652;23.364;2023-06-10T03:01:13;12.30;;;8.23;;
33190;SDS011;19554;42.652;23.364;2023-06-10T03:03:39;12.10;;;7.72;;
33190;SDS011;19554;42.652;23.364;2023-06-10T03:06:07;10.15;;;8.23;;
33190;SDS011;19554;42.652;23.364;2023-06-10T03:08:35;11.35;;;7.63;;
33190;SDS011;19554;42.652;23.364;2023-06-10T03:11:01;13.82;;;8.77;;
33190;SDS011;19554;42.652;23.364;2023-06-10T03:13:26;12.45;;;8.05;;
33190;SDS011;19554;42.652;23.364;2023-06-10T03:15:51;12.27;;;8.40;;
33190;SDS011;19554;42.652;23.364;2023-06-10T03:18:17;12.40;;;8.27;;
33190;SDS011;19554;42.652;23.364;2023-06-10T03:20:43;15.85;;;8.45;;
33190;SDS011;19554;42.652;23.364;2023-06-10T03:23:09;14.77;;;10.23;;
33190;SDS011;19554;42.652;23.364;2023-06-10T03:25:35;13.35;;;9.02;;
33190;SDS011;19554;42.652;23.364;2023-06-10T03:28:00;15.70;;;10.05;;
33190;SDS011;19554;42.652;23.364;2023-06-10T03:30:27;11.50;;;8.75;;
33190;SDS011;19554;42.652;23.364;2023-06-10T03:32:52;14.02;;;9.15;;
33190;SDS011;19554;42.652;23.364;2023-06-10T03:35:18;12.65;;;9.90;;
33190;SDS011;19554;42.652;23.364;2023-06-10T03:37:43;19.38;;;11.18;;
33190;SDS011;19554;42.652;23.364;2023-06-10T03:40:09;14.70;;;9.55;;
33190;SDS011;19554;42.652;23.364;2023-06-10T03:42:36;14.63;;;8.85;;
33190;SDS011;19554;42.652;23.364;2023-06-10T03:45:02;17.42;;;9.32;;
33190;SDS011;19554;42.652;23.364;2023-06-10T03:47:32;11.43;;;8.68;;
33190;SDS011;19554;42.652;23.364;2023-06-10T03:49:59;14.88;;;9.52;;
33190;SDS011;19554;42.652;23.364;2023-06-10T03:52:25;14.40;;;9.48;;
33190;SDS011;19554;42.652;23.364;2023-06-10T03:54:50;13.63;;;10.77;;
33190;SDS011;19554;42.652;23.364;2023-06-10T03:57:16;14.20;;;10.82;;
33190;SDS011;19554;42.652;23.364;2023-06-10T03:59:41;15.57;;;11.23;;
33190;SDS011;19554;42.652;23.364;2023-06-10T04:02:06;13.77;;;10.40;;
33190;SDS011;19554;42.652;23.364;2023-06-10T04:04:33;13.77;;;11.13;;
33190;SDS011;19554;42.652;23.364;2023-06-10T04:06:59;16.85;;;11.65;;
33190;SDS011;19554;42.652;23.364;2023-06-10T04:09:25;16.83;;;11.40;;
33190;SDS011;19554;42.652;23.364;2023-06-10T04:11:50;16.00;;;11.15;;
33190;SDS011;19554;42.652;23.364;2023-06-10T04:14:16;18.33;;;11.05;;
33190;SDS011;19554;42.652;23.364;2023-06-10T04:16:41;15.40;;;11.07;;
33190;SDS011;19554;42.652;23.364;2023-06-10T04:19:07;18.58;;;12.30;;
33190;SDS011;19554;42.652;23.364;2023-06-10T04:21:33;18.55;;;11.80;;
33190;SDS011;19554;42.652;23.364;2023-06-10T04:23:58;13.18;;;11.15;;
33190;SDS011;19554;42.652;23.364;2023-06-10T04:26:24;14.77;;;11.77;;
33190;SDS011;19554;42.652;23.364;2023-06-10T04:28:50;13.75;;;11.45;;
33190;SDS011;19554;42.652;23.364;2023-06-10T04:31:16;15.55;;;11.23;;
33190;SDS011;19554;42.652;23.364;2023-06-10T04:33:41;13.48;;;11.60;;
33190;SDS011;19554;42.652;23.364;2023-06-10T04:36:06;23.08;;;11.75;;
33190;SDS011;19554;42.652;23.364;2023-06-10T04:38:32;16.65;;;11.57;;
33190;SDS011;19554;42.652;23.364;2023-06-10T04:40:57;13.18;;;10.68;;
33190;SDS011;19554;42.652;23.364;2023-06-10T04:43:23;14.23;;;10.93;;
33190;SDS011;19554;42.652;23.364;2023-06-10T04:45:48;15.00;;;10.93;;
33190;SDS011;19554;42.652;23.364;2023-06-10T04:48:13;16.42;;;10.93;;
33190;SDS011;19554;42.652;23.364;2023-06-10T04:50:39;14.75;;;10.40;;
33190;SDS011;19554;42.652;23.364;2023-06-10T04:53:04;17.55;;;11.50;;
33190;SDS011;19554;42.652;23.364;2023-06-10T04:55:31;17.00;;;10.90;;
33190;SDS011;19554;42.652;23.364;2023-06-10T04:57:56;15.18;;;10.48;;
33190;SDS011;19554;42.652;23.364;2023-06-10T05:00:22;14.18;;;10.32;;
33190;SDS011;19554;42.652;23.364;2023-06-10T05:02:48;14.70;;;10.68;;
33190;SDS011;19554;42.652;23.364;2023-06-10T05:05:15;14.23;;;10.80;;
33190;SDS011;19554;42.652;23.364;2023-06-10T05:07:41;12.52;;;10.75;;
33190;SDS011;19554;42.652;23.364;2023-06-10T05:10:07;16.48;;;11.63;;
33190;SDS011;19554;42.652;23.364;2023-06-10T05:12:34;16.55;;;11.55;;
33190;SDS011;19554;42.652;23.364;2023-06-10T05:14:59;16.80;;;11.23;;
33190;SDS011;19554;42.652;23.364;2023-06-10T05:17:24;19.20;;;12.02;;
33190;SDS011;19554;42.652;23.364;2023-06-10T05:19:50;13.23;;;11.10;;
33190;SDS011;19554;42.652;23.364;2023-06-10T05:22:16;17.75;;;11.35;;
33190;SDS011;19554;42.652;23.364;2023-06-10T05:24:43;14.88;;;11.27;;
33190;SDS011;19554;42.652;23.364;2023-06-10T05:27:09;14.65;;;10.85;;
33190;SDS011;19554;42.652;23.364;2023-06-10T05:29:35;16.27;;;10.88;;
33190;SDS011;19554;42.652;23.364;2023-06-10T05:32:00;12.27;;;10.80;;
33190;SDS011;19554;42.652;23.364;2023-06-10T05:34:28;15.73;;;10.60;;
33190;SDS011;19554;42.652;23.364;2023-06-10T05:36:55;14.55;;;10.07;;
33190;SDS011;19554;42.652;23.364;2023-06-10T05:39:20;14.90;;;11.55;;
33190;SDS011;19554;42.652;23.364;2023-06-10T05:41:45;14.38;;;10.75;;
33190;SDS011;19554;42.652;23.364;2023-06-10T05:44:11;15.55;;;11.95;;
33190;SDS011;19554;42.652;23.364;2023-06-10T05:46:36;16.33;;;11.80;;
33190;SDS011;19554;42.652;23.364;2023-06-10T05:49:02;16.63;;;11.52;;
33190;SDS011;19554;42.652;23.364;2023-06-10T05:51:27;13.43;;;11.75;;
33190;SDS011;19554;42.652;23.364;2023-06-10T05:53:53;19.55;;;12.75;;
33190;SDS011;19554;42.652;23.364;2023-06-10T05:56:19;16.73;;;11.93;;
33190;SDS011;19554;42.652;23.364;2023-06-10T05:58:47;14.50;;;11.68;;
33190;SDS011;19554;42.652;23.364;2023-06-10T06:01:13;19.67;;;13.50;;
33190;SDS011;19554;42.652;23.364;2023-06-10T06:03:38;15.45;;;12.23;;
33190;SDS011;19554;42.652;23.364;2023-06-10T06:06:04;18.23;;;13.82;;
33190;SDS011;19554;42.652;23.364;2023-06-10T06:08:30;19.23;;;13.07;;
33190;SDS011;19554;42.652;23.364;2023-06-10T06:10:55;17.75;;;13.00;;
33190;SDS011;19554;42.652;23.364;2023-06-10T06:13:21;24.25;;;15.20;;
33190;SDS011;19554;42.652;23.364;2023-06-10T06:15:46;18.92;;;14.38;;
33190;SDS011;19554;42.652;23.364;2023-06-10T06:18:12;20.15;;;14.13;;
33190;SDS011;19554;42.652;23.364;2023-06-10T06:20:37;20.00;;;14.98;;
33190;SDS011;19554;42.652;23.364;2023-06-10T06:23:02;20.10;;;14.98;;
33190;SDS011;19554;42.652;23.364;2023-06-10T06:25:28;19.45;;;13.88;;
33190;SDS011;19554;42.652;23.364;2023-06-10T06:27:53;21.42;;;15.32;;
33190;SDS011;19554;42.652;23.364;2023-06-10T06:30:19;18.33;;;14.30;;
33190;SDS011;19554;42.652;23.364;2023-06-10T06:32:44;27.40;;;16.00;;
33190;SDS011;19554;42.652;23.364;2023-06-10T06:35:10;17.80;;;15.65;;
33190;SDS011;19554;42.652;23.364;2023-06-10T06:37:35;22.77;;;15.40;;
33190;SDS011;19554;42.652;23.364;2023-06-10T06:40:01;19.08;;;15.27;;
33190;SDS011;19554;42.652;23.364;2023-06-10T06:42:26;17.13;;;14.18;;
33190;SDS011;19554;42.652;23.364;2023-06-10T06:44:52;17.52;;;14.40;;
33190;SDS011;19554;42.652;23.364;2023-06-10T06:47:17;20.50;;;13.48;;
33190;SDS011;19554;42.652;23.364;2023-06-10T06:49:45;19.63;;;12.70;;
33190;SDS011;19554;42.652;23.364;2023-06-10T06:52:14;15.65;;;12.00;;
33190;SDS011;19554;42.652;23.364;2023-06-10T06:54:40;20.27;;;11.30;;
33190;SDS011;19554;42.652;23.364;2023-06-10T06:57:05;14.85;;;11.30;;
33190;SDS011;19554;42.652;23.364;2023-06-10T06:59:32;14.07;;;9.30;;
33190;SDS011;19554;42.652;23.364;2023-06-10T07:01:57;17.58;;;9.32;;
33190;SDS011;19554;42.652;23.364;2023-06-10T07:04:23;15.18;;;9.52;;
33190;SDS011;19554;42.652;23.364;2023-06-10T07:06:48;13.68;;;9.38;;
33190;SDS011;19554;42.652;23.364;2023-06-10T07:09:14;14.25;;;9.85;;
33190;SDS011;19554;42.652;23.364;2023-06-10T07:11:40;13.77;;;8.85;;
33190;SDS011;19554;42.652;23.364;2023-06-10T07:14:05;16.88;;;8.75;;
33190;SDS011;19554;42.652;23.364;2023-06-10T07:16:31;12.82;;;10.18;;
33190;SDS011;19554;42.652;23.364;2023-06-10T07:18:57;14.13;;;9.75;;
33190;SDS011;19554;42.652;23.364;2023-06-10T07:21:22;13.90;;;8.95;;
33190;SDS011;19554;42.652;23.364;2023-06-10T07:23:48;11.98;;;7.93;;
33190;SDS011;19554;42.652;23.364;2023-06-10T07:26:14;10.48;;;7.05;;
33190;SDS011;19554;42.652;23.364;2023-06-10T07:28:40;9.55;;;6.57;;
33190;SDS011;19554;42.652;23.364;2023-06-10T07:31:06;12.35;;;6.95;;
33190;SDS011;19554;42.652;23.364;2023-06-10T07:33:32;13.70;;;7.18;;
33190;SDS011;19554;42.652;23.364;2023-06-10T07:35:58;7.20;;;6.18;;
33190;SDS011;19554;42.652;23.364;2023-06-10T07:38:24;10.00;;;6.20;;
33190;SDS011;19554;42.652;23.364;2023-06-10T07:40:50;14.70;;;7.10;;
33190;SDS011;19554;42.652;23.364;2023-06-10T07:43:15;11.00;;;6.90;;
33190;SDS011;19554;42.652;23.364;2023-06-10T07:45:41;11.50;;;6.47;;
33190;SDS011;19554;42.652;23.364;2023-06-10T07:48:07;16.27;;;7.00;;
33190;SDS011;19554;42.652;23.364;2023-06-10T07:50:33;11.15;;;7.07;;
33190;SDS011;19554;42.652;23.364;2023-06-10T07:52:59;12.10;;;7.40;;
33190;SDS011;19554;42.652;23.364;2023-06-10T07:55:24;14.23;;;8.38;;
33190;SDS011;19554;42.652;23.364;2023-06-10T07:57:53;13.13;;;7.97;;
33190;SDS011;19554;42.652;23.364;2023-06-10T08:00:19;9.20;;;6.78;;
33190;SDS011;19554;42.652;23.364;2023-06-10T08:02:45;13.75;;;7.85;;
33190;SDS011;19554;42.652;23.364;2023-06-10T08:05:11;11.68;;;7.25;;
33190;SDS011;19554;42.652;23.364;2023-06-10T08:07:36;10.35;;;7.22;;
33190;SDS011;19554;42.652;23.364;2023-06-10T08:10:02;13.23;;;6.95;;
33190;SDS011;19554;42.652;23.364;2023-06-10T08:12:29;10.27;;;6.72;;
33190;SDS011;19554;42.652;23.364;2023-06-10T08:14:55;9.48;;;5.78;;
33190;SDS011;19554;42.652;23.364;2023-06-10T08:17:21;9.30;;;5.50;;
33190;SDS011;19554;42.652;23.364;2023-06-10T08:19:46;8.23;;;5.28;;
33190;SDS011;19554;42.652;23.364;2023-06-10T08:22:11;5.68;;;4.47;;
33190;SDS011;19554;42.652;23.364;2023-06-10T08:24:37;9.05;;;3.80;;
33190;SDS011;19554;42.652;23.364;2023-06-10T08:27:02;4.72;;;3.95;;
33190;SDS011;19554;42.652;23.364;2023-06-10T08:29:28;8.15;;;4.05;;
33190;SDS011;19554;42.652;23.364;2023-06-10T08:31:56;7.38;;;3.95;;
33190;SDS011;19554;42.652;23.364;2023-06-10T08:34:21;8.13;;;4.20;;
33190;SDS011;19554;42.652;23.364;2023-06-10T08:36:46;8.52;;;4.50;;
33190;SDS011;19554;42.652;23.364;2023-06-10T08:39:12;21.23;;;5.38;;
33190;SDS011;19554;42.652;23.364;2023-06-10T08:41:40;13.50;;;5.15;;
33190;SDS011;19554;42.652;23.364;2023-06-10T08:44:10;7.97;;;4.78;;
33190;SDS011;19554;42.652;23.364;2023-06-10T08:46:43;8.45;;;4.95;;
33190;SDS011;19554;42.652;23.364;2023-06-10T08:49:10;10.73;;;4.53;;
33190;SDS011;19554;42.652;23.364;2023-06-10T08:51:41;9.23;;;4.85;;
33190;SDS011;19554;42.652;23.364;2023-06-10T08:54:11;8.70;;;5.43;;
33190;SDS011;19554;42.652;23.364;2023-06-10T08:56:43;8.95;;;5.00;;
33190;SDS011;19554;42.652;23.364;2023-06-10T08:59:13;11.27;;;5.45;;
33190;SDS011;19554;42.652;23.364;2023-06-10T09:01:38;6.45;;;4.60;;
33190;SDS011;19554;42.652;23.364;2023-06-10T09:04:04;5.22;;;4.35;;
33190;SDS011;19554;42.652;23.364;2023-06-10T09:06:29;8.13;;;4.38;;
33190;SDS011;19554;42.652;23.364;2023-06-10T09:08:58;7.30;;;4.03;;
33190;SDS011;19554;42.652;23.364;2023-06-10T09:11:24;6.60;;;3.40;;
33190;SDS011;19554;42.652;23.364;2023-06-10T09:13:50;8.23;;;3.88;;
33190;SDS011;19554;42.652;23.364;2023-06-10T09:16:16;5.32;;;3.85;;
33190;SDS011;19554;42.652;23.364;2023-06-10T09:18:41;5.32;;;3.90;;
33190;SDS011;19554;42.652;23.364;2023-06-10T09:21:07;4.32;;;3.17;;
33190;SDS011;19554;42.652;23.364;2023-06-10T09:23:33;4.18;;;3.25;;
33190;SDS011;19554;42.652;23.364;2023-06-10T09:25:59;5.25;;;3.25;;
33190;SDS011;19554;42.652;23.364;2023-06-10T09:28:24;4.50;;;3.60;;
33190;SDS011;19554;42.652;23.364;2023-06-10T09:30:50;5.68;;;3.10;;
33190;SDS011;19554;42.652;23.364;2023-06-10T09:33:27;3.38;;;2.83;;
33190;SDS011;19554;42.652;23.364;2023-06-10T09:35:53;4.53;;;2.70;;
33190;SDS011;19554;42.652;23.364;2023-06-10T09:38:21;6.43;;;3.60;;
33190;SDS011;19554;42.652;23.364;2023-06-10T09:40:50;4.53;;;3.30;;
33190;SDS011;19554;42.652;23.364;2023-06-10T09:43:17;5.82;;;3.67;;
33190;SDS011;19554;42.652;23.364;2023-06-10T09:45:43;7.13;;;3.80;;
33190;SDS011;19554;42.652;23.364;2023-06-10T09:48:08;5.72;;;2.72;;
33190;SDS011;19554;42.652;23.364;2023-06-10T09:50:34;4.82;;;2.80;;
33190;SDS011;19554;42.652;23.364;2023-06-10T09:53:02;12.93;;;3.83;;
33190;SDS011;19554;42.652;23.364;2023-06-10T09:55:32;7.70;;;3.47;;
33190;SDS011;19554;42.652;23.364;2023-06-10T09:57:58;9.02;;;3.65;;
33190;SDS011;19554;42.652;23.364;2023-06-10T10:00:23;4.00;;;3.35;;
33190;SDS011;19554;42.652;23.364;2023-06-10T10:02:52;4.57;;;3.45;;
33190;SDS011;19554;42.652;23.364;2023-06-10T10:05:19;6.93;;;3.30;;
33190;SDS011;19554;42.652;23.364;2023-06-10T10:07:46;3.72;;;3.10;;
33190;SDS011;19554;42.652;23.364;2023-06-10T10:10:13;5.45;;;3.55;;
33190;SDS011;19554;42.652;23.364;2023-06-10T10:12:40;4.03;;;3.22;;
33190;SDS011;19554;42.652;23.364;2023-06-10T10:15:06;3.58;;;2.90;;
33190;SDS011;19554;42.652;23.364;2023-06-10T10:17:34;5.22;;;3.30;;
33190;SDS011;19554;42.652;23.364;2023-06-10T10:20:04;6.28;;;3.95;;
33190;SDS011;19554;42.652;23.364;2023-06-10T10:22:39;5.20;;;3.10;;
33190;SDS011;19554;42.652;23.364;2023-06-10T10:25:10;6.25;;;3.80;;
33190;SDS011;19554;42.652;23.364;2023-06-10T10:30:05;7.05;;;3.97;;
33190;SDS011;19554;42.652;23.364;2023-06-10T10:32:36;5.57;;;3.78;;
33190;SDS011;19554;42.652;23.364;2023-06-10T10:37:34;5.65;;;3.63;;
33190;SDS011;19554;42.652;23.364;2023-06-10T10:40:00;5.32;;;3.60;;
33190;SDS011;19554;42.652;23.364;2023-06-10T10:42:28;11.88;;;3.90;;
33190;SDS011;19554;42.652;23.364;2023-06-10T10:44:54;7.85;;;3.50;;
33190;SDS011;19554;42.652;23.364;2023-06-10T10:47:21;6.72;;;3.95;;
33190;SDS011;19554;42.652;23.364;2023-06-10T10:49:48;4.32;;;3.20;;
33190;SDS011;19554;42.652;23.364;2023-06-10T10:52:15;5.53;;;3.50;;
33190;SDS011;19554;42.652;23.364;2023-06-10T10:54:45;4.47;;;3.55;;
33190;SDS011;19554;42.652;23.364;2023-06-10T10:57:16;5.50;;;4.00;;
33190;SDS011;19554;42.652;23.364;2023-06-10T11:02:32;5.38;;;3.78;;
33190;SDS011;19554;42.652;23.364;2023-06-10T11:05:13;6.35;;;3.90;;
33190;SDS011;19554;42.652;23.364;2023-06-10T11:07:40;6.35;;;3.70;;
33190;SDS011;19554;42.652;23.364;2023-06-10T11:15:11;9.23;;;4.10;;
33190;SDS011;19554;42.652;23.364;2023-06-10T11:17:37;5.13;;;4.10;;
33190;SDS011;19554;42.652;23.364;2023-06-10T11:20:03;7.25;;;3.88;;
33190;SDS011;19554;42.652;23.364;2023-06-10T11:22:29;6.85;;;4.13;;
33190;SDS011;19554;42.652;23.364;2023-06-10T11:24:54;5.93;;;3.90;;
33190;SDS011;19554;42.652;23.364;2023-06-10T11:27:21;5.80;;;3.63;;
33190;SDS011;19554;42.652;23.364;2023-06-10T11:29:57;6.72;;;4.10;;
33190;SDS011;19554;42.652;23.364;2023-06-10T11:32:25;4.07;;;3.40;;
33190;SDS011;19554;42.652;23.364;2023-06-10T11:34:55;6.88;;;3.90;;
33190;SDS011;19554;42.652;23.364;2023-06-10T11:37:21;5.25;;;3.97;;
33190;SDS011;19554;42.652;23.364;2023-06-10T11:39:47;6.97;;;4.00;;
33190;SDS011;19554;42.652;23.364;2023-06-10T11:42:16;4.97;;;3.50;;
33190;SDS011;19554;42.652;23.364;2023-06-10T11:44:47;5.80;;;4.65;;
33190;SDS011;19554;42.652;23.364;2023-06-10T11:47:18;5.82;;;4.13;;
33190;SDS011;19554;42.652;23.364;2023-06-10T11:49:44;8.93;;;4.07;;
33190;SDS011;19554;42.652;23.364;2023-06-10T11:52:10;6.13;;;3.88;;
33190;SDS011;19554;42.652;23.364;2023-06-10T11:54:36;6.78;;;3.92;;
33190;SDS011;19554;42.652;23.364;2023-06-10T11:57:02;6.35;;;4.00;;
33190;SDS011;19554;42.652;23.364;2023-06-10T11:59:33;9.57;;;4.25;;
33190;SDS011;19554;42.652;23.364;2023-06-10T12:01:58;6.18;;;4.38;;
33190;SDS011;19554;42.652;23.364;2023-06-10T12:04:24;6.20;;;4.55;;
33190;SDS011;19554;42.652;23.364;2023-06-10T12:06:51;7.15;;;5.35;;
33190;SDS011;19554;42.652;23.364;2023-06-10T12:11:44;7.35;;;3.97;;
33190;SDS011;19554;42.652;23.364;2023-06-10T12:14:10;9.55;;;3.50;;
33190;SDS011;19554;42.652;23.364;2023-06-10T12:16:36;5.57;;;3.90;;
33190;SDS011;19554;42.652;23.364;2023-06-10T12:19:02;5.57;;;3.33;;
33190;SDS011;19554;42.652;23.364;2023-06-10T12:21:29;6.07;;;3.63;;
33190;SDS011;19554;42.652;23.364;2023-06-10T12:24:00;4.88;;;3.85;;
33190;SDS011;19554;42.652;23.364;2023-06-10T12:26:39;7.97;;;4.18;;
33190;SDS011;19554;42.652;23.364;2023-06-10T12:29:23;4.93;;;3.78;;
33190;SDS011;19554;42.652;23.364;2023-06-10T12:31:53;6.50;;;4.10;;
33190;SDS011;19554;42.652;23.364;2023-06-10T12:34:18;5.75;;;3.83;;
33190;SDS011;19554;42.652;23.364;2023-06-10T12:36:48;6.07;;;3.88;;
33190;SDS011;19554;42.652;23.364;2023-06-10T12:39:14;7.10;;;3.80;;
33190;SDS011;19554;42.652;23.364;2023-06-10T12:41:39;5.57;;;3.78;;
33190;SDS011;19554;42.652;23.364;2023-06-10T12:44:05;5.13;;;4.10;;
33190;SDS011;19554;42.652;23.364;2023-06-10T12:46:37;7.63;;;4.60;;
33190;SDS011;19554;42.652;23.364;2023-06-10T12:49:02;5.50;;;3.90;;
33190;SDS011;19554;42.652;23.364;2023-06-10T12:51:28;4.47;;;3.95;;
33190;SDS011;19554;42.652;23.364;2023-06-10T12:53:53;7.88;;;3.60;;
33190;SDS011;19554;42.652;23.364;2023-06-10T12:56:19;4.63;;;3.28;;
33190;SDS011;19554;42.652;23.364;2023-06-10T12:58:44;7.55;;;3.55;;
33190;SDS011;19554;42.652;23.364;2023-06-10T13:01:09;3.92;;;3.33;;
33190;SDS011;19554;42.652;23.364;2023-06-10T13:03:35;5.45;;;3.40;;
33190;SDS011;19554;42.652;23.364;2023-06-10T13:06:00;5.80;;;3.80;;
33190;SDS011;19554;42.652;23.364;2023-06-10T13:08:25;4.55;;;3.50;;
33190;SDS011;19554;42.652;23.364;2023-06-10T13:10:51;5.00;;;3.33;;
33190;SDS011;19554;42.652;23.364;2023-06-10T13:13:16;6.65;;;4.18;;
33190;SDS011;19554;42.652;23.364;2023-06-10T13:15:42;6.47;;;3.30;;
33190;SDS011;19554;42.652;23.364;2023-06-10T13:18:08;5.95;;;4.05;;
33190;SDS011;19554;42.652;23.364;2023-06-10T13:20:33;6.68;;;4.10;;
33190;SDS011;19554;42.652;23.364;2023-06-10T13:22:59;5.30;;;3.17;;
33190;SDS011;19554;42.652;23.364;2023-06-10T13:25:24;6.50;;;3.67;;
33190;SDS011;19554;42.652;23.364;2023-06-10T13:27:50;8.57;;;3.60;;
33190;SDS011;19554;42.652;23.364;2023-06-10T13:30:15;4.68;;;4.03;;
33190;SDS011;19554;42.652;23.364;2023-06-10T13:32:41;6.03;;;3.97;;
33190;SDS011;19554;42.652;23.364;2023-06-10T13:35:06;10.80;;;4.05;;
33190;SDS011;19554;42.652;23.364;2023-06-10T13:37:32;7.00;;;3.97;;
33190;SDS011;19554;42.652;23.364;2023-06-10T13:39:59;5.53;;;3.80;;
33190;SDS011;19554;42.652;23.364;2023-06-10T13:42:25;8.07;;;4.70;;
33190;SDS011;19554;42.652;23.364;2023-06-10T13:44:54;6.47;;;4.30;;
33190;SDS011;19554;42.652;23.364;2023-06-10T13:47:19;7.63;;;4.10;;
33190;SDS011;19554;42.652;23.364;2023-06-10T13:49:45;4.15;;;3.75;;
33190;SDS011;19554;42.652;23.364;2023-06-10T13:52:11;4.53;;;3.85;;
33190;SDS011;19554;42.652;23.364;2023-06-10T13:54:36;9.10;;;4.80;;
33190;SDS011;19554;42.652;23.364;2023-06-10T13:57:02;5.82;;;4.25;;
33190;SDS011;19554;42.652;23.364;2023-06-10T13:59:29;9.27;;;4.78;;
33190;SDS011;19554;42.652;23.364;2023-06-10T14:01:54;7.20;;;4.57;;
33190;SDS011;19554;42.652;23.364;2023-06-10T14:04:20;6.72;;;4.07;;
33190;SDS011;19554;42.652;23.364;2023-06-10T14:06:46;5.90;;;4.25;;
33190;SDS011;19554;42.652;23.364;2023-06-10T14:09:15;10.07;;;5.15;;
33190;SDS011;19554;42.652;23.364;2023-06-10T14:11:41;10.23;;;5.13;;
33190;SDS011;19554;42.652;23.364;2023-06-10T14:14:07;12.55;;;5.22;;
33190;SDS011;19554;42.652;23.364;2023-06-10T14:16:32;8.27;;;4.63;;
33190;SDS011;19554;42.652;23.364;2023-06-10T14:18:58;8.35;;;4.88;;
33190;SDS011;19554;42.652;23.364;2023-06-10T14:21:23;6.78;;;4.68;;
33190;SDS011;19554;42.652;23.364;2023-06-10T14:23:48;10.15;;;4.82;;
33190;SDS011;19554;42.652;23.364;2023-06-10T14:26:15;7.68;;;4.55;;
33190;SDS011;19554;42.652;23.364;2023-06-10T14:28:40;6.07;;;3.80;;
33190;SDS011;19554;42.652;23.364;2023-06-10T14:31:06;5.55;;;4.63;;
33190;SDS011;19554;42.652;23.364;2023-06-10T14:33:32;5.72;;;4.35;;
33190;SDS011;19554;42.652;23.364;2023-06-10T14:35:58;7.60;;;4.60;;
33190;SDS011;19554;42.652;23.364;2023-06-10T14:38:23;9.25;;;5.18;;
33190;SDS011;19554;42.652;23.364;2023-06-10T14:40:49;6.18;;;4.35;;